Time;durP1;ratioP1;P1;durP2;ratioP2;P2;SDS_P1;SDS_P2;PMS_P1;PMS_P2;Temp;Humidity;BMP_temperature;BMP_pressure;BME280_temperature;BME280_humidity;BME280_pressure;Samples;Min_cycle;Max_cycle;Signal;HPM_P1;HPM_P2
2021/10/09 00:02:24;;;;;;;5.85;2.50;;;9.00;99.90;;;;;;5121508;28;20046;-47
2021/10/09 00:04:50;;;;;;;4.53;2.70;;;9.10;99.90;;;;;;5120742;28;20035;-48
2021/10/09 00:07:16;;;;;;;6.50;3.00;;;9.00;99.90;;;;;;5122008;28;20031;-48
2021/10/09 00:09:44;;;;;;;3.60;2.45;;;9.00;99.90;;;;;;5035073;28;20035;-48
2021/10/09 00:12:10;;;;;;;5.53;2.83;;;9.10;99.90;;;;;;5109460;28;20031;-48
2021/10/09 00:14:35;;;;;;;4.80;2.28;;;9.10;99.90;;;;;;5064528;28;20127;-48
2021/10/09 00:17:01;;;;;;;5.40;2.33;;;9.10;99.90;;;;;;5121943;28;20028;-46
2021/10/09 00:19:27;;;;;;;5.88;2.20;;;9.20;99.90;;;;;;5120746;28;20050;-46
2021/10/09 00:21:53;;;;;;;4.55;2.10;;;9.10;99.90;;;;;;5129708;28;20511;-45
2021/10/09 00:24:20;;;;;;;7.05;2.97;;;9.10;99.90;;;;;;5029218;28;20044;-48
2021/10/09 00:26:47;;;;;;;4.88;2.20;;;9.10;99.90;;;;;;5056306;28;20040;-47
2021/10/09 00:29:13;;;;;;;3.70;2.08;;;9.00;99.90;;;;;;5058595;28;20103;-48
2021/10/09 00:31:39;;;;;;;4.90;2.60;;;9.00;99.90;;;;;;5057921;28;20078;-50
2021/10/09 00:34:05;;;;;;;4.75;2.13;;;9.00;99.90;;;;;;5059265;28;20021;-48
2021/10/09 00:36:31;;;;;;;3.85;2.30;;;8.90;99.90;;;;;;5046779;28;20508;-46
2021/10/09 00:38:57;;;;;;;4.72;2.20;;;8.90;99.90;;;;;;5031038;28;20041;-47
2021/10/09 00:41:23;;;;;;;4.35;1.92;;;8.90;99.90;;;;;;5030793;28;20570;-49
2021/10/09 00:43:49;;;;;;;5.80;2.45;;;9.00;99.90;;;;;;5014516;28;20045;-48
2021/10/09 00:46:15;;;;;;;5.50;2.28;;;8.90;99.90;;;;;;5014251;28;20064;-46
2021/10/09 00:48:42;;;;;;;5.20;2.10;;;9.00;99.90;;;;;;5030881;28;20029;-49
2021/10/09 00:51:08;;;;;;;5.57;2.28;;;9.00;99.90;;;;;;5032516;28;20034;-49
2021/10/09 00:53:37;;;;;;;3.75;2.10;;;9.10;99.90;;;;;;5043110;28;20053;-49
2021/10/09 00:56:05;;;;;;;7.07;2.25;;;8.90;99.90;;;;;;5054579;28;20468;-47
2021/10/09 00:58:32;;;;;;;3.38;2.03;;;9.00;99.90;;;;;;5071454;28;20408;-48
2021/10/09 01:00:58;;;;;;;3.28;1.90;;;9.10;99.90;;;;;;5096665;28;20036;-46
2021/10/09 01:03:24;;;;;;;3.50;2.55;;;9.00;99.90;;;;;;5096360;28;20386;-49
2021/10/09 01:05:50;;;;;;;4.07;2.80;;;8.90;99.90;;;;;;5096377;28;20032;-46
2021/10/09 01:08:16;;;;;;;2.95;2.10;;;8.90;99.90;;;;;;5044532;28;20376;-46
2021/10/09 01:10:42;;;;;;;6.30;2.22;;;9.00;99.90;;;;;;5107407;28;20032;-49
2021/10/09 01:13:07;;;;;;;4.15;2.30;;;8.90;99.90;;;;;;5096831;28;20455;-48
2021/10/09 01:15:35;;;;;;;4.13;1.90;;;8.90;99.90;;;;;;5061237;28;20464;-47
2021/10/09 01:18:16;;;;;;;5.47;2.53;;;8.90;99.90;;;;;;5096695;28;20528;-47
2021/10/09 01:20:54;;;;;;;4.38;2.10;;;9.00;99.90;;;;;;5096200;28;20445;-50
2021/10/09 01:23:21;;;;;;;4.07;2.38;;;9.00;99.90;;;;;;5077628;28;20043;-48
2021/10/09 01:25:49;;;;;;;5.40;3.03;;;9.00;99.90;;;;;;5096085;28;20020;-46
2021/10/09 01:28:15;;;;;;;5.07;2.03;;;8.90;99.90;;;;;;5077482;28;20032;-47
2021/10/09 01:30:42;;;;;;;8.57;2.38;;;9.00;99.90;;;;;;5095861;28;20087;-50
2021/10/09 01:33:08;;;;;;;3.15;1.92;;;9.00;99.90;;;;;;5096012;28;20035;-47
2021/10/09 01:35:49;;;;;;;5.35;2.40;;;9.00;99.90;;;;;;5096086;28;20020;-46
2021/10/09 01:38:15;;;;;;;4.35;2.35;;;9.10;99.90;;;;;;5095725;28;20075;-49
2021/10/09 01:40:41;;;;;;;3.53;2.28;;;9.10;99.90;;;;;;5095889;28;20056;-48
2021/10/09 01:43:11;;;;;;;3.83;2.08;;;9.00;99.90;;;;;;5095886;28;20412;-48
2021/10/09 01:45:40;;;;;;;4.60;2.35;;;9.00;99.90;;;;;;5060573;28;20047;-47
2021/10/09 01:48:06;;;;;;;5.45;2.47;;;9.00;99.90;;;;;;5095611;28;20020;-47
2021/10/09 01:50:32;;;;;;;5.80;3.47;;;9.00;99.90;;;;;;5095675;28;20047;-49
2021/10/09 01:52:58;;;;;;;3.50;1.83;;;9.00;99.90;;;;;;5095798;28;20518;-49
2021/10/09 01:55:24;;;;;;;3.05;2.03;;;8.90;99.90;;;;;;5095444;28;20032;-48
2021/10/09 01:57:49;;;;;;;4.30;2.10;;;9.00;99.90;;;;;;5060479;28;20059;-45
2021/10/09 02:00:15;;;;;;;4.85;2.45;;;9.00;99.90;;;;;;5095537;28;20105;-49
2021/10/09 02:02:41;;;;;;;4.60;2.40;;;8.90;99.90;;;;;;5095660;28;20467;-46
2021/10/09 02:05:07;;;;;;;5.45;2.78;;;9.00;99.90;;;;;;5095357;28;20024;-48
2021/10/09 02:07:34;;;;;;;5.57;2.80;;;8.90;99.90;;;;;;5043371;28;20036;-47
2021/10/09 02:10:00;;;;;;;5.35;2.70;;;9.00;99.90;;;;;;5044112;28;20521;-48
2021/10/09 02:12:27;;;;;;;4.78;2.55;;;8.90;99.90;;;;;;5098092;28;20027;-48
2021/10/09 02:15:14;;;;;;;7.10;2.38;;;8.90;99.90;;;;;;5044026;28;20087;-46
2021/10/09 02:25:44;;;;;;;4.88;2.42;;;8.70;99.90;;;;;;5095277;28;20047;-47
2021/10/09 02:28:10;;;;;;;;;;;8.70;99.90;;;;;;5095315;28;20040;-49
2021/10/09 02:30:38;;;;;;;3.85;2.42;;;8.60;99.90;;;;;;5094633;28;19903;-50
2021/10/09 02:33:04;;;;;;;4.30;2.50;;;8.60;99.90;;;;;;5094676;28;20462;-46
2021/10/09 02:35:30;;;;;;;8.02;3.67;;;8.60;99.90;;;;;;5094575;28;20035;-47
2021/10/09 02:37:56;;;;;;;4.40;2.58;;;8.70;99.90;;;;;;5094884;28;20128;-46
2021/10/09 02:40:22;;;;;;;8.50;2.75;;;8.50;99.90;;;;;;5094513;28;20020;-50
2021/10/09 02:42:48;;;;;;;5.93;2.28;;;8.50;99.90;;;;;;5092788;28;20043;-46
2021/10/09 02:45:14;;;;;;;6.03;2.60;;;8.50;99.90;;;;;;5094655;28;20093;-47
2021/10/09 02:47:40;;;;;;;4.68;2.58;;;8.50;99.90;;;;;;5094512;28;20069;-48
2021/10/09 02:50:10;;;;;;;5.32;3.45;;;8.50;99.90;;;;;;5009753;28;20036;-49
2021/10/09 02:52:36;;;;;;;4.35;2.45;;;8.50;99.90;;;;;;5058709;28;20055;-45
2021/10/09 02:55:02;;;;;;;5.38;2.60;;;8.40;99.90;;;;;;5105496;28;20020;-46
2021/10/09 02:57:29;;;;;;;4.22;2.60;;;8.50;99.90;;;;;;5114557;28;20024;-49
2021/10/09 02:59:55;;;;;;;3.92;2.55;;;8.50;99.90;;;;;;5114935;28;20076;-47
2021/10/09 03:02:20;;;;;;;7.20;2.85;;;8.60;99.90;;;;;;5114774;28;20031;-49
2021/10/09 03:04:46;;;;;;;4.97;2.28;;;8.60;99.90;;;;;;5114457;28;20032;-45
2021/10/09 03:07:12;;;;;;;4.43;2.83;;;8.60;99.90;;;;;;5027527;28;20042;-47
2021/10/09 03:09:38;;;;;;;4.45;2.90;;;8.50;99.90;;;;;;5096254;28;20047;-47
2021/10/09 03:12:04;;;;;;;3.97;2.35;;;8.40;99.90;;;;;;5110993;28;20032;-48
2021/10/09 03:14:29;;;;;;;5.95;2.75;;;8.40;99.90;;;;;;5093724;28;20112;-46
2021/10/09 03:16:55;;;;;;;4.40;2.70;;;8.30;99.90;;;;;;5093813;28;20051;-46
2021/10/09 03:19:21;;;;;;;5.85;3.08;;;8.40;99.90;;;;;;5093995;28;20028;-47
2021/10/09 03:21:47;;;;;;;6.47;3.20;;;8.40;99.90;;;;;;5094213;28;20028;-46
2021/10/09 03:24:13;;;;;;;3.60;2.50;;;8.50;99.90;;;;;;5058764;28;20119;-49
2021/10/09 03:26:39;;;;;;;5.60;2.78;;;8.40;99.90;;;;;;5093878;28;20024;-45
2021/10/09 03:29:05;;;;;;;5.10;3.25;;;8.30;99.90;;;;;;5093979;28;20074;-46
2021/10/09 03:31:31;;;;;;;5.50;2.72;;;8.40;99.90;;;;;;5093824;28;20024;-49
2021/10/09 03:33:56;;;;;;;5.85;2.95;;;8.50;99.90;;;;;;5093690;28;20376;-47
2021/10/09 03:36:22;;;;;;;3.53;2.35;;;8.60;99.90;;;;;;5058592;28;20047;-47
2021/10/09 03:38:48;;;;;;;4.43;2.67;;;8.40;99.90;;;;;;5058533;28;20044;-47
2021/10/09 03:41:15;;;;;;;4.18;2.88;;;8.40;99.90;;;;;;5058503;28;20034;-48
2021/10/09 03:43:43;;;;;;;3.55;2.35;;;8.50;99.90;;;;;;5093869;28;20040;-48
2021/10/09 03:48:46;;;;;;;3.88;2.63;;;8.50;99.90;;;;;;5093611;28;20379;-47
2021/10/09 03:53:56;;;;;;;4.90;2.75;;;8.50;99.90;;;;;;5105224;28;20519;-47
2021/10/09 03:56:21;;;;;;;5.22;3.30;;;8.50;99.90;;;;;;5113875;28;20041;-47
2021/10/09 03:58:47;;;;;;;6.07;4.22;;;8.50;99.90;;;;;;5114016;28;20023;-47
2021/10/09 04:01:13;;;;;;;8.32;4.95;;;8.40;99.90;;;;;;5113701;28;20092;-48
2021/10/09 04:03:39;;;;;;;8.02;3.70;;;8.40;99.90;;;;;;5077900;28;20046;-46
2021/10/09 04:06:04;;;;;;;7.13;4.47;;;8.50;99.90;;;;;;5113748;28;20031;-48
2021/10/09 04:08:30;;;;;;;9.75;4.20;;;8.50;99.90;;;;;;5078106;28;20151;-49
2021/10/09 04:10:56;;;;;;;5.70;3.30;;;8.50;99.90;;;;;;5113838;28;20019;-46
2021/10/09 04:13:22;;;;;;;4.68;3.15;;;8.50;99.90;;;;;;5113788;28;20070;-49
2021/10/09 04:15:47;;;;;;;5.88;3.65;;;8.50;99.90;;;;;;5112170;28;20039;-46
2021/10/09 04:18:13;;;;;;;5.47;3.67;;;8.60;99.90;;;;;;5113654;28;20387;-45
2021/10/09 04:20:39;;;;;;;4.68;3.15;;;8.70;99.90;;;;;;5113526;28;20024;-47
2021/10/09 04:23:05;;;;;;;5.00;3.20;;;8.70;99.90;;;;;;5071224;28;20064;-47
2021/10/09 04:25:31;;;;;;;5.28;2.75;;;8.80;99.90;;;;;;5072093;28;20044;-47
2021/10/09 04:27:57;;;;;;;4.22;3.03;;;8.90;99.90;;;;;;5058276;28;20161;-49
2021/10/09 04:30:23;;;;;;;4.25;2.83;;;8.90;99.90;;;;;;5074796;28;20115;-48
2021/10/09 04:32:48;;;;;;;5.72;3.33;;;8.90;99.90;;;;;;5074750;28;20039;-46
2021/10/09 04:35:14;;;;;;;4.85;3.10;;;8.90;99.90;;;;;;5074781;28;20067;-47
2021/10/09 04:37:40;;;;;;;7.40;3.00;;;8.70;99.90;;;;;;5074538;28;20044;-47
2021/10/09 04:40:06;;;;;;;4.90;3.63;;;8.70;99.90;;;;;;5074757;28;20153;-47
2021/10/09 04:42:32;;;;;;;6.72;3.50;;;8.80;99.90;;;;;;5074749;28;20072;-48
2021/10/09 04:44:58;;;;;;;5.53;3.22;;;8.80;99.90;;;;;;5074437;28;20126;-48
2021/10/09 04:47:23;;;;;;;7.15;4.18;;;8.90;99.90;;;;;;5074364;28;20186;-50
2021/10/09 04:49:49;;;;;;;6.10;3.70;;;8.90;99.90;;;;;;5074242;28;20090;-46
2021/10/09 04:52:15;;;;;;;6.05;3.55;;;9.00;99.90;;;;;;5007144;28;20040;-49
2021/10/09 04:54:41;;;;;;;7.25;4.85;;;8.90;99.90;;;;;;5075060;28;20097;-50
2021/10/09 04:57:06;;;;;;;5.78;3.70;;;9.00;99.90;;;;;;5094719;28;20035;-49
2021/10/09 04:59:32;;;;;;;5.10;3.72;;;9.00;99.90;;;;;;5109044;28;20023;-49
2021/10/09 05:01:58;;;;;;;4.93;3.65;;;9.00;99.90;;;;;;5107294;28;20024;-48
2021/10/09 05:04:24;;;;;;;7.75;4.50;;;9.10;99.90;;;;;;5080561;28;20043;-46
2021/10/09 05:06:49;;;;;;;7.25;4.22;;;9.10;99.90;;;;;;5106300;28;20062;-48
2021/10/09 05:09:15;;;;;;;10.02;6.32;;;8.90;99.90;;;;;;5077192;28;20050;-46
2021/10/09 05:11:41;;;;;;;9.88;6.40;;;9.00;99.90;;;;;;5113269;28;20032;-49
2021/10/09 05:14:07;;;;;;;12.30;7.13;;;9.00;99.90;;;;;;5116749;28;20046;-45
2021/10/09 05:16:33;;;;;;;18.02;9.38;;;9.10;99.90;;;;;;5116621;28;20030;-47
2021/10/09 05:18:58;;;;;;;18.60;9.00;;;9.10;99.90;;;;;;5116778;28;20019;-49
2021/10/09 05:21:24;;;;;;;14.20;9.02;;;9.10;99.90;;;;;;5081150;28;20080;-47
2021/10/09 05:23:50;;;;;;;8.27;5.13;;;9.10;99.90;;;;;;5116746;28;20036;-49
2021/10/09 05:26:16;;;;;;;9.27;5.07;;;9.00;99.90;;;;;;5116693;28;20023;-48
2021/10/09 05:28:49;;;;;;;9.85;5.68;;;9.00;99.90;;;;;;5116299;28;20114;-46
2021/10/09 05:33:48;;;;;;;25.20;16.48;;;9.10;99.90;;;;;;5116243;28;20058;-46
2021/10/09 05:36:14;;;;;;;26.65;15.82;;;9.20;99.90;;;;;;5115906;28;20024;-48
2021/10/09 05:38:40;;;;;;;26.95;18.33;;;9.20;99.90;;;;;;5116182;28;20034;-46
2021/10/09 05:41:05;;;;;;;23.83;16.35;;;9.20;99.90;;;;;;5116286;28;20028;-48
2021/10/09 05:43:31;;;;;;;24.65;14.60;;;9.30;99.90;;;;;;5116059;28;20118;-49
2021/10/09 05:45:59;;;;;;;30.98;19.05;;;9.30;99.90;;;;;;5116099;28;20035;-50
2021/10/09 05:48:25;;;;;;;27.90;17.80;;;9.40;99.90;;;;;;5115993;28;20127;-47
2021/10/09 05:50:59;;;;;;;22.92;15.68;;;9.20;99.90;;;;;;5114681;28;20035;-47
2021/10/09 05:53:47;;;;;;;25.77;16.65;;;9.30;99.90;;;;;;5112343;28;20048;-49
2021/10/09 05:59:17;;;;;;;13.27;8.40;;;9.20;99.90;;;;;;5115163;28;20042;-46
2021/10/09 06:31:10;;;;;;;8.18;4.57;;;9.50;99.90;;;;;;5115614;28;20031;-47
2021/10/09 06:37:46;;;;;;;7.18;4.40;;;9.50;99.90;;;;;;5115173;28;20076;-46
2021/10/09 06:43:09;;;;;;;5.85;3.80;;;9.50;99.90;;;;;;5085038;28;20045;-47
2021/10/09 07:01:36;;;;;;;6.32;3.97;;;9.40;99.90;;;;;;5114668;28;20047;-46
2021/10/09 07:04:02;;;;;;;6.75;4.10;;;9.70;99.90;;;;;;5113588;28;20542;-49
2021/10/09 07:06:28;;;;;;;4.40;4.00;;;9.80;99.90;;;;;;5045660;28;20042;-49
2021/10/09 07:08:54;;;;;;;9.00;4.32;;;9.70;99.90;;;;;;5062624;28;20043;-48
2021/10/09 07:11:19;;;;;;;8.48;4.13;;;9.60;99.90;;;;;;5114103;28;20459;-46
2021/10/09 07:13:45;;;;;;;5.28;3.40;;;9.60;99.90;;;;;;5078806;28;20032;-47
2021/10/09 07:16:11;;;;;;;7.53;4.72;;;9.50;99.90;;;;;;5114494;28;20028;-47
2021/10/09 07:18:36;;;;;;;6.68;4.57;;;9.50;99.90;;;;;;5113551;28;20020;-46
2021/10/09 07:21:02;;;;;;;5.68;4.25;;;9.40;99.90;;;;;;5108419;28;20475;-48
2021/10/09 07:23:28;;;;;;;6.28;4.18;;;9.60;99.90;;;;;;5061945;28;20122;-50
2021/10/09 07:25:54;;;;;;;7.25;4.28;;;9.70;99.90;;;;;;5111164;28;20065;-49
2021/10/09 07:28:20;;;;;;;5.68;3.63;;;9.60;99.90;;;;;;5113731;28;20035;-47
2021/10/09 07:30:45;;;;;;;7.55;5.20;;;9.50;99.90;;;;;;5111896;28;20028;-51
2021/10/09 07:33:11;;;;;;;7.45;4.45;;;9.60;99.90;;;;;;5108412;28;20035;-50
2021/10/09 07:35:37;;;;;;;7.35;4.28;;;9.60;99.90;;;;;;5104407;28;20037;-47
2021/10/09 07:38:03;;;;;;;7.63;3.95;;;9.50;99.90;;;;;;5105460;28;20028;-46
2021/10/09 07:40:29;;;;;;;8.50;4.95;;;9.50;99.90;;;;;;5113838;28;20598;-49
2021/10/09 07:42:55;;;;;;;10.60;6.13;;;9.60;99.90;;;;;;5077619;28;20130;-48
2021/10/09 07:45:20;;;;;;;6.32;4.35;;;9.80;99.90;;;;;;5107038;28;20092;-46
2021/10/09 07:47:46;;;;;;;7.55;4.70;;;9.80;99.90;;;;;;5058014;28;20031;-49
2021/10/09 07:50:12;;;;;;;6.60;4.40;;;9.70;99.90;;;;;;5111606;28;20024;-49
2021/10/09 07:52:38;;;;;;;7.10;4.95;;;9.70;99.90;;;;;;5077991;28;20031;-48
2021/10/09 07:55:05;;;;;;;5.38;4.28;;;9.80;99.90;;;;;;5078272;28;20111;-49
2021/10/09 07:57:31;;;;;;;5.25;4.70;;;9.80;99.90;;;;;;4981683;28;20137;-47
2021/10/09 07:59:57;;;;;;;7.07;4.95;;;9.80;99.90;;;;;;4983119;28;20588;-46
2021/10/09 08:02:23;;;;;;;7.35;4.95;;;9.90;99.90;;;;;;5037363;28;20127;-48
2021/10/09 08:04:49;;;;;;;8.18;5.40;;;9.90;99.90;;;;;;5019480;28;20041;-51
2021/10/09 08:07:15;;;;;;;6.50;5.03;;;9.80;99.90;;;;;;5037282;28;20030;-50
2021/10/09 08:09:41;;;;;;;8.35;5.38;;;9.90;99.90;;;;;;5036740;28;20025;-49
2021/10/09 08:12:07;;;;;;;6.03;5.10;;;9.80;99.90;;;;;;5017261;28;20025;-46
2021/10/09 08:14:32;;;;;;;8.90;5.10;;;9.80;99.90;;;;;;4983263;28;20366;-46
2021/10/09 08:16:58;;;;;;;8.57;5.20;;;9.90;99.90;;;;;;5017289;28;20116;-47
2021/10/09 08:19:24;;;;;;;12.88;6.20;;;9.80;99.90;;;;;;5011003;28;20397;-48
2021/10/09 08:21:51;;;;;;;9.40;4.97;;;9.80;99.90;;;;;;5036007;28;20026;-47
2021/10/09 08:27:08;;;;;;;7.05;5.07;;;9.70;99.90;;;;;;5017488;28;20084;-47
2021/10/09 08:40:37;;;;;;;7.90;5.22;;;9.80;99.90;;;;;;5035801;28;20439;-48
2021/10/09 08:43:04;;;;;;;8.75;5.55;;;9.90;99.90;;;;;;5016762;28;20037;-46
2021/10/09 08:45:29;;;;;;;7.50;5.68;;;9.90;99.90;;;;;;5035345;28;20025;-48
2021/10/09 08:47:55;;;;;;;6.88;5.13;;;9.90;99.90;;;;;;5011170;28;20052;-47
2021/10/09 08:50:21;;;;;;;8.10;4.70;;;9.90;99.90;;;;;;4999719;28;20041;-46
2021/10/09 08:53:00;;;;;;;9.32;4.25;;;9.80;99.90;;;;;;4968917;28;20038;-48
2021/10/09 08:55:28;;;;;;;8.73;4.93;;;9.80;99.90;;;;;;5035318;28;20035;-48
2021/10/09 08:57:59;;;;;;;7.05;5.30;;;9.80;99.90;;;;;;4968142;28;20041;-50
2021/10/09 09:00:39;;;;;;;8.93;4.97;;;9.90;99.90;;;;;;5035259;28;20034;-48
2021/10/09 09:03:13;;;;;;;7.13;4.82;;;9.80;99.90;;;;;;5035101;28;20111;-49
2021/10/09 09:05:56;;;;;;;5.63;3.85;;;9.80;99.90;;;;;;4993331;28;20045;-48
2021/10/09 09:33:52;;;;;;;9.45;5.05;;;10.10;99.90;;;;;;5054642;28;20477;-47
2021/10/09 09:41:42;;;;;;;8.43;5.47;;;10.00;99.90;;;;;;4995575;28;20041;-46
2021/10/09 09:44:13;;;;;;;9.70;5.82;;;10.10;99.90;;;;;;4978963;28;20441;-51
2021/10/09 09:46:39;;;;;;;7.93;4.97;;;10.10;99.90;;;;;;5012324;28;20042;-48
2021/10/09 09:49:06;;;;;;;9.65;5.90;;;10.00;99.90;;;;;;4995737;28;20257;-49
2021/10/09 09:51:39;;;;;;;11.60;6.20;;;10.10;99.90;;;;;;4998279;28;20039;-47
2021/10/09 09:54:05;;;;;;;8.55;5.90;;;10.10;99.90;;;;;;4992345;28;20490;-49
2021/10/09 09:56:31;;;;;;;9.68;7.00;;;10.10;99.90;;;;;;4982338;28;20042;-47
2021/10/09 09:59:01;;;;;;;10.02;5.75;;;10.20;99.90;;;;;;4993015;28;20067;-49
2021/10/09 10:01:33;;;;;;;10.02;7.93;;;10.10;99.90;;;;;;4992346;28;20034;-48
2021/10/09 10:04:00;;;;;;;9.93;6.57;;;10.00;99.90;;;;;;4943545;28;20429;-47
2021/10/09 10:06:30;;;;;;;9.77;8.45;;;9.90;99.90;;;;;;4992376;28;20030;-50
2021/10/09 10:08:56;;;;;;;11.25;9.43;;;9.90;99.90;;;;;;4943798;28;20038;-48
2021/10/09 10:11:23;;;;;;;12.00;10.70;;;9.90;99.90;;;;;;4991803;28;20576;-47
2021/10/09 10:13:50;;;;;;;15.07;13.02;;;9.90;99.90;;;;;;5008955;28;20189;-47
2021/10/09 10:16:17;;;;;;;7.53;6.40;;;9.90;99.90;;;;;;5003097;28;20056;-49
2021/10/09 10:18:46;;;;;;;7.10;5.85;;;9.90;99.90;;;;;;5039776;28;20079;-47
2021/10/09 10:21:16;;;;;;;7.68;6.35;;;10.00;99.90;;;;;;5034757;28;20059;-45
2021/10/09 10:23:45;;;;;;;7.28;5.30;;;10.10;99.90;;;;;;5052011;28;20052;-47
2021/10/09 10:26:24;;;;;;;6.78;5.30;;;10.10;99.90;;;;;;5053426;28;20029;-46
2021/10/09 10:28:53;;;;;;;6.82;5.13;;;10.10;99.90;;;;;;5053565;28;20029;-47
2021/10/09 10:31:19;;;;;;;7.10;4.80;;;10.10;99.90;;;;;;5053304;28;20017;-48
2021/10/09 10:33:59;;;;;;;5.90;4.47;;;10.00;99.90;;;;;;5053301;28;20112;-48
2021/10/09 10:36:54;;;;;;;9.27;6.03;;;9.90;99.90;;;;;;5053254;28;20043;-47
2021/10/09 10:39:26;;;;;;;9.40;5.10;;;9.90;99.90;;;;;;4972218;28;20060;-48
2021/10/09 10:42:07;;;;;;;6.75;5.13;;;9.90;99.90;;;;;;4972189;28;20057;-47
2021/10/09 10:50:42;;;;;;;12.48;6.75;;;10.00;99.90;;;;;;4971270;28;20093;-47
2021/10/09 10:53:12;;;;;;;10.52;6.65;;;10.10;99.90;;;;;;4971907;28;20113;-49
2021/10/09 10:56:09;;;;;;;7.20;4.43;;;10.20;99.90;;;;;;4971700;28;20128;-48
2021/10/09 10:58:36;;;;;;;7.03;4.40;;;10.30;99.90;;;;;;4971903;28;20085;-50
2021/10/09 11:01:22;;;;;;;5.13;3.58;;;10.30;99.90;;;;;;4972007;28;20027;-50
2021/10/09 11:03:50;;;;;;;4.78;4.00;;;10.20;99.90;;;;;;4967753;28;20430;-48
2021/10/09 11:06:17;;;;;;;6.35;4.50;;;10.20;99.90;;;;;;4955473;28;20043;-48
2021/10/09 11:08:45;;;;;;;5.53;4.60;;;10.30;99.90;;;;;;4971624;28;20034;-50
2021/10/09 11:11:11;;;;;;;8.48;5.47;;;10.30;99.90;;;;;;4955555;28;20050;-48
2021/10/09 11:13:39;;;;;;;8.02;6.18;;;10.40;99.90;;;;;;4971733;28;20023;-47
2021/10/09 11:16:05;;;;;;;6.78;4.82;;;10.40;99.90;;;;;;5023844;28;20090;-51
2021/10/09 11:18:47;;;;;;;5.38;4.60;;;10.30;99.90;;;;;;5017472;28;20040;-50
2021/10/09 11:21:13;;;;;;;6.28;4.13;;;10.40;99.90;;;;;;5052519;28;20036;-50
2021/10/09 11:23:51;;;;;;;5.55;4.60;;;10.30;99.90;;;;;;5017347;28;20057;-52
2021/10/09 11:26:18;;;;;;;6.93;4.63;;;10.20;99.90;;;;;;5052480;28;20448;-49
2021/10/09 11:28:45;;;;;;;9.13;6.75;;;10.20;99.90;;;;;;5052583;28;20296;-50
2021/10/09 11:31:27;;;;;;;6.97;5.35;;;10.20;99.90;;;;;;5052411;28;20029;-46
2021/10/09 11:33:59;;;;;;;7.10;4.63;;;10.20;99.90;;;;;;5000291;28;20035;-47
2021/10/09 11:36:25;;;;;;;5.22;4.47;;;10.30;99.90;;;;;;5051352;28;20032;-50
2021/10/09 11:39:12;;;;;;;5.25;4.35;;;10.20;99.90;;;;;;5013876;28;20049;-50
2021/10/09 11:41:41;;;;;;;6.93;5.00;;;10.20;99.90;;;;;;5032240;28;20033;-51
2021/10/09 11:44:26;;;;;;;7.15;5.88;;;10.20;99.90;;;;;;5032201;28;20064;-50
2021/10/09 11:55:21;;;;;;;7.53;5.22;;;10.30;99.90;;;;;;5047314;28;20068;-53
2021/10/09 11:57:49;;;;;;;8.43;5.28;;;10.30;99.90;;;;;;5027957;28;20054;-49
2021/10/09 12:00:27;;;;;;;7.68;5.72;;;10.40;99.90;;;;;;5032032;28;20484;-50
2021/10/09 12:03:13;;;;;;;9.60;5.03;;;10.40;99.90;;;;;;5032151;28;20040;-49
2021/10/09 12:05:58;;;;;;;9.18;6.53;;;10.30;99.90;;;;;;5031850;28;20488;-50
2021/10/09 12:08:27;;;;;;;9.77;6.28;;;10.40;99.90;;;;;;5013464;28;20033;-46
2021/10/09 12:11:12;;;;;;;10.20;6.88;;;10.30;99.90;;;;;;5031986;28;20030;-47
2021/10/09 12:14:06;;;;;;;8.82;5.38;;;10.30;99.90;;;;;;5031952;28;20026;-51
2021/10/09 12:16:41;;;;;;;21.23;10.02;;;10.30;99.90;;;;;;5029733;28;20033;-53
2021/10/09 12:19:34;;;;;;;12.57;6.95;;;10.30;99.90;;;;;;5032082;28;20036;-51
2021/10/09 12:22:01;;;;;;;7.18;4.85;;;10.30;99.90;;;;;;5031353;28;20132;-50
2021/10/09 12:24:30;;;;;;;6.05;4.07;;;10.30;99.90;;;;;;5031828;28;20076;-47
2021/10/09 12:27:05;;;;;;;11.30;6.80;;;10.30;99.90;;;;;;5039322;28;20472;-50
2021/10/09 12:29:33;;;;;;;12.73;7.20;;;10.40;99.90;;;;;;5032302;28;20485;-48
2021/10/09 12:32:19;;;;;;;7.75;5.70;;;10.40;99.90;;;;;;5051722;28;20040;-50
2021/10/09 12:34:45;;;;;;;6.00;4.85;;;10.40;99.90;;;;;;5051620;28;20037;-49
2021/10/09 12:37:27;;;;;;;7.95;6.22;;;10.60;99.90;;;;;;5051130;28;20078;-48
2021/10/09 12:40:08;;;;;;;8.60;6.05;;;10.70;99.90;;;;;;5051576;28;20036;-51
2021/10/09 12:42:34;;;;;;;8.60;5.82;;;10.70;99.90;;;;;;5049977;28;20025;-52
2021/10/09 12:45:00;;;;;;;8.30;6.32;;;10.70;99.90;;;;;;5047044;28;20033;-48
2021/10/09 12:47:26;;;;;;;7.78;5.00;;;10.70;99.90;;;;;;5043365;28;20060;-46
2021/10/09 12:49:52;;;;;;;6.30;4.28;;;10.90;99.90;;;;;;5042891;28;20053;-49
2021/10/09 12:52:18;;;;;;;7.72;5.43;;;10.80;99.90;;;;;;5035324;28;20084;-46
2021/10/09 12:54:43;;;;;;;8.13;5.30;;;10.80;99.90;;;;;;4999738;28;20061;-50
2021/10/09 12:57:09;;;;;;;8.52;5.78;;;10.80;99.90;;;;;;5035312;28;20504;-51
2021/10/09 12:59:35;;;;;;;6.38;4.82;;;10.80;99.90;;;;;;5035216;28;20102;-47
2021/10/09 13:02:04;;;;;;;7.90;5.55;;;10.90;99.90;;;;;;5041966;28;20033;-46
2021/10/09 13:04:30;;;;;;;7.45;5.35;;;10.90;99.90;;;;;;5054930;28;20142;-50
2021/10/09 13:06:56;;;;;;;14.07;6.47;;;10.90;99.90;;;;;;5043077;28;20504;-49
2021/10/09 13:09:22;;;;;;;7.25;5.30;;;10.80;99.90;;;;;;5035160;28;20064;-50
2021/10/09 13:11:53;;;;;;;5.90;4.40;;;10.80;99.90;;;;;;5016415;28;20441;-47
2021/10/09 13:14:19;;;;;;;6.47;4.50;;;10.60;99.90;;;;;;5047390;28;20064;-48
2021/10/09 13:16:45;;;;;;;9.05;5.13;;;10.70;99.90;;;;;;5046842;28;20033;-50
2021/10/09 13:19:11;;;;;;;7.28;5.32;;;10.60;99.90;;;;;;5016349;28;20124;-45
2021/10/09 13:21:37;;;;;;;8.85;6.00;;;10.60;99.90;;;;;;5034849;28;20492;-49
2021/10/09 13:24:03;;;;;;;10.43;6.57;;;10.60;99.90;;;;;;4999976;28;20049;-46
2021/10/09 13:26:30;;;;;;;9.68;6.95;;;10.60;99.90;;;;;;4998732;28;20044;-51
2021/10/09 13:28:57;;;;;;;9.93;7.03;;;10.60;99.90;;;;;;5053985;28;20041;-46
2021/10/09 13:31:22;;;;;;;10.85;6.85;;;10.70;99.90;;;;;;5054642;28;20060;-49
2021/10/09 13:33:48;;;;;;;9.25;5.70;;;10.50;99.90;;;;;;5054401;28;20075;-46
2021/10/09 13:36:15;;;;;;;11.25;6.50;;;10.60;99.90;;;;;;5035763;28;20045;-49
2021/10/09 13:38:41;;;;;;;10.20;5.85;;;10.70;99.90;;;;;;5054440;28;20456;-50
2021/10/09 13:41:10;;;;;;;9.65;6.78;;;10.60;99.90;;;;;;5054449;28;20060;-47
2021/10/09 13:43:35;;;;;;;12.15;7.78;;;10.60;99.90;;;;;;5035531;28;20559;-50
2021/10/09 13:46:01;;;;;;;11.63;6.97;;;10.60;99.90;;;;;;5053509;28;20117;-51
2021/10/09 13:48:27;;;;;;;13.77;8.13;;;10.50;99.90;;;;;;5048737;28;20095;-47
2021/10/09 13:50:53;;;;;;;10.50;7.20;;;10.50;99.90;;;;;;5015756;28;20116;-50
2021/10/09 13:53:20;;;;;;;9.65;6.57;;;10.60;99.90;;;;;;5035916;28;20077;-52
2021/10/09 13:55:47;;;;;;;12.70;6.68;;;10.50;99.90;;;;;;5053309;28;20033;-48
2021/10/09 13:58:14;;;;;;;11.85;7.95;;;10.40;99.90;;;;;;5018459;28;20041;-48
2021/10/09 14:00:42;;;;;;;21.33;14.70;;;10.50;99.90;;;;;;5011717;28;20045;-47
2021/10/09 14:03:09;;;;;;;20.03;12.00;;;10.60;99.90;;;;;;5011920;28;20133;-52
2021/10/09 14:05:35;;;;;;;15.02;9.15;;;10.80;99.90;;;;;;5011939;28;20170;-53
2021/10/09 14:08:02;;;;;;;14.32;8.55;;;10.80;99.90;;;;;;5011818;28;20116;-50
2021/10/09 14:10:28;;;;;;;13.48;8.23;;;10.80;99.90;;;;;;5005643;28;20034;-51
2021/10/09 14:12:55;;;;;;;21.23;11.25;;;10.80;99.90;;;;;;4991908;28;20065;-53
2021/10/09 14:15:21;;;;;;;18.35;10.27;;;10.80;99.90;;;;;;4992160;28;20498;-49
2021/10/09 14:17:47;;;;;;;39.22;14.82;;;10.80;99.90;;;;;;4992180;28;20031;-46
2021/10/09 14:20:13;;;;;;;33.00;11.38;;;10.80;99.90;;;;;;4992022;28;20532;-53
2021/10/09 14:22:40;;;;;;;28.25;13.48;;;10.80;99.90;;;;;;4992150;28;20037;-50
2021/10/09 14:25:10;;;;;;;14.10;7.13;;;10.80;99.90;;;;;;4942337;28;20104;-50
2021/10/09 14:27:37;;;;;;;17.50;10.52;;;10.60;99.90;;;;;;4959574;28;20046;-52
2021/10/09 14:30:07;;;;;;;16.10;9.38;;;10.60;99.90;;;;;;4991922;28;20038;-54
2021/10/09 14:32:34;;;;;;;10.60;7.30;;;10.60;99.90;;;;;;4969608;28;20046;-47
2021/10/09 14:35:00;;;;;;;13.60;7.90;;;10.70;99.90;;;;;;5052660;28;20040;-50
2021/10/09 14:37:26;;;;;;;11.00;7.53;;;10.70;99.90;;;;;;4998574;28;20049;-47
2021/10/09 14:39:51;;;;;;;11.32;7.35;;;10.60;99.90;;;;;;5051235;28;20025;-50
2021/10/09 14:42:18;;;;;;;8.50;5.63;;;10.60;99.90;;;;;;5050852;28;20103;-49
2021/10/09 14:44:44;;;;;;;7.20;4.93;;;10.50;99.90;;;;;;4998033;28;20126;-48
2021/10/09 14:50:11;;;;;;;10.10;6.20;;;10.40;99.90;;;;;;5045786;28;20052;-47
2021/10/09 15:16:40;;;;;;;7.15;5.72;;;10.30;99.90;;;;;;5029744;28;20044;-49
2021/10/09 15:19:06;;;;;;;8.23;4.85;;;10.20;99.90;;;;;;5016353;28;20034;-48
2021/10/09 15:21:32;;;;;;;6.30;4.40;;;10.20;99.90;;;;;;5002203;28;20048;-48
2021/10/09 15:23:58;;;;;;;7.03;4.28;;;10.30;99.90;;;;;;4970242;28;20065;-48
2021/10/09 15:26:23;;;;;;;7.65;5.38;;;10.50;99.90;;;;;;5019561;28;20065;-48
2021/10/09 15:28:49;;;;;;;7.45;6.40;;;10.50;99.90;;;;;;5023628;28;20092;-47
2021/10/09 15:31:16;;;;;;;6.10;4.43;;;10.50;99.90;;;;;;4986303;28;20076;-47
2021/10/09 15:33:42;;;;;;;4.85;3.95;;;10.50;99.90;;;;;;5022630;28;20402;-47